Watersmeet, MI

3:19 PM CDT on July 24, 2014 (GMT -0500)
RAWS WATERSMEET MI US (MWMTM4) Elev 1604 ft | 46.27 °N, 89.17 °W | Change Station

Current weather conditions updated 42 minutes ago

Clear
Clear
75 °F
Feels Like 77 °F
N
5
Wind Variable Wind from NW
Gusts 10.0 mph

Today is forecast to be Cooler than yesterday.

Today
High -- | Low -- °F
--% Chance of Precip.
Yesterday
High -- | Low -- °F
Precip. -- in
5:29 AM 8:36 PM
Waning Crescent, 4% visible
Pressure 30.10 in
Visibility 10.0 miles
Clouds Clear
Heat Index 77 °F
Dew Point 46 °F
Humidity 36%
Rainfall 0.00 in
Snow Depth Not available.
UV 9 out of 12
Pollen 6.10 out of 12
Air Quality Not available.
Flu Activity Not available.
METAR KLNL 241935Z AUTO 24005KT 10SM CLR 23/08 A3010 RMK AO2 T02310084

More Conditions Fewer Conditions

Pressure 30.10 in
Visibility 10.0 miles
Clouds Clear
Heat Index 77 °F
Dew Point 46 °F
Humidity 36%
Rainfall 0.00 in
Snow Depth Not available.
UV 9 out of 12
Pollen 6.10 out of 12
Air Quality Not available.
Flu Activity Not available.
METAR KLNL 241935Z AUTO 24005KT 10SM CLR 23/08 A3010 RMK AO2 T02310084

More Conditions Fewer Conditions

10-Day Weather Forecast

Almanac

Astronomy

Jul. 24, 2014 Rise Set
Actual Time 5:29 AM CDT 8:36 PM CDT
Civil Twilight 4:53 AM CDT 9:12 PM CDT
Nautical Twilight 4:06 AM CDT 9:58 PM CDT
Astronomical Twilight 3:09 AM CDT 10:55 PM CDT
Moon 3:38 AM CDT 6:49 PM CDT
Length of Visible Light 16h 19m
Length of Day
15h 07m
Tomorrow will be 2m 13s shorter.
Waning Crescent, 4% of the Moon is Illuminated
Today
Waning Crescent
Jul 26
New
Aug 3
First Quarter
Aug 10
Full
Aug 17
Last Quarter

Today's Extremes

State Highs State Lows

Community

WunderPhotos

Upload Photos

1,737,108 photos uploaded!

Nearby

Snow Depth

Station Depth Elevation
No new snow has been reported.

Earthquake Activity

City Distance Mag. Time & Date
No recent earthquake activity has been reported nearby.
Minimum magnitude displayed is 2.5.

Coastal Water Temperatures

Place Temperature
No Stations Reporting

Nearby Weather Stations

Station Location Temp. Heat Index Dew Point Humidity Wind Precip. Elev Updated Type
RAWS WATERSMEET MI, Watersmeet, MI 75 °F 77 °F 46 °F 36% NW  at  5 mph 0.00 in / hr 1604 ft 2:37 PM CDT MADIS
Misery Bay Boat Launch, Watersmeet, MI 76.3 °F 78 °F 52 °F 43% SSW  at  4.2 mph - / hr 1685 ft 3:18 PM CDT Normal
RAWS PHELPS WI, Phelps, WI 76 °F 78 °F 50 °F 40% NNW  at  3 mph 0.00 in / hr 1770 ft 2:02 PM CDT MADIS
East Shore Rd, Marenisco, Marenisco, MI 78.8 °F 79 °F 56 °F 45% SSW  at  2.2 mph - / hr 1316 ft 3:07 PM CDT Normal
Razorback Lake, Sayner, WI 74.3 °F 77 °F 52 °F 45% ESE  at  0.0 mph 0.00 in / hr 1696 ft 3:19 PM CDT Rapid Fire

Show More Stations Show Fewer Stations